UHWW

Vladivostok International

Airport
ICAO code
UHWW
Summary
ICAO Region
EUR
ICAO Territory
Location

Artyom, Primorsky Krai,

Coordinates
43° 23' 57" N , 132° 9' 5" E
Metar
UHWW 241300Z 00000MPS 9999 NSC M09/M15 Q1030 R25L/0///70 NOSIG RMK QFE771

Vladivostok International Airport (IATA: VVO) is located near Artyom, Primorsky Krai, Russia 44 km north of center of the city of Vladivostok. It was formerly known as Knevichi Airport.

Runways

Designator Length Width Surface Rops
16/34 602 20 ASP No/No
6/24 973 20 ASP No/No
07R/25L 2500 60 ASP Yes/Yes
07L/25R 3500 60 CON Yes/Yes

Airport map

Aerial View

SKYbrary Partners:

Safety knowledge contributed by: